Salt Lake City, UT (84144)

6:48 PM MDT on September 28, 2016 (GMT -0600)
Central Ninth | | Change Station

Elev 4235 ft 40.75 °N, 111.89 °W | Updated 11 minutes ago

Thunderstorm
Thunderstorm
74.7 °F
Feels Like 78 °F
N
1.7
Wind Variable Wind from West

Today
High -- | Low -- °F
--% Chance of Precip.
Yesterday
High -- | Low -- °F
Precip. -- in
Pressure 30.09 in
Visibility 10.0 miles
Clouds Few 10000 ft
Few 13000 ft
Scattered Clouds 16000 ft
Mostly Cloudy 20000 ft
Heat Index 78 °F
Dew Point 54 °F
Humidity 48%
Rainfall 0.00 in
Snow Depth Not available.
7:21 AM 7:13 PM
Waning Crescent, 4% visible
SPECI KSLC 290003Z 32006KT 10SM TS FEW100 FEW130CB SCT160 BKN200 26/10 A3009 RMK AO2 OCNL LTGICCG VC SE AND DSNT E-SE TSB01 TS VC SE MOV NW CB DSNT E-S T02610100
Pressure 30.09 in
Visibility 10.0 miles
Clouds Few 10000 ft
Few 13000 ft
Scattered Clouds 16000 ft
Mostly Cloudy 20000 ft
Heat Index 78 °F
Dew Point 54 °F
Humidity 48%
Rainfall 0.00 in
Snow Depth Not available.
7:21 AM 7:13 PM
Waning Crescent, 4% visible
SPECI KSLC 290003Z 32006KT 10SM TS FEW100 FEW130CB SCT160 BKN200 26/10 A3009 RMK AO2 OCNL LTGICCG VC SE AND DSNT E-SE TSB01 TS VC SE MOV NW CB DSNT E-S T02610100

10-Day Weather Forecast

Almanac

Astronomy

Sep. 28, 2016 Rise Set
Actual Time
Civil Twilight
Nautical Twilight
Astronomical Twilight
Moon
Length of Visible Light
Length of Day
Tomorrow will be .
, % of the Moon is Illuminated

Today's Extremes

State Highs State Lows

Community

WunderPhotos

Upload Photos

1,942,370 photos uploaded!

WunderBlog® & News

Nearby

Air Quality

  Air Quality AQ Index Pollutant
Not available.

Snow Depth

Station Depth Elevation

Earthquake Activity

City Distance Mag. Time & Date
Minimum magnitude displayed is 2.5.

Coastal Water Temperatures

Place Temperature

Stations

Nearby Weather Stations

Station Location Temp. Windchill Dew Point Humidity Wind Precip. Elev Updated Type
                   

Watches & Warnings

There are currently no watches in effect.